createdAt,value
2022-12-31T00:01:44.426Z,92764.34
2022-12-31T00:04:10.828Z,92607.88
2022-12-31T00:06:37.311Z,92496.38
2022-12-31T00:09:05.528Z,92443.47
2022-12-31T00:11:32.133Z,92387.97
2022-12-31T00:13:58.644Z,92352.16
2022-12-31T00:16:38.843Z,92327.28
2022-12-31T00:19:06.078Z,92304.25
2022-12-31T00:21:33.407Z,92285.41
2022-12-31T00:24:00.038Z,92293.31
2022-12-31T00:26:28.635Z,92305.34
2022-12-31T00:28:55.722Z,92332.28
2022-12-31T00:31:40.505Z,92358.16
2022-12-31T00:34:06.963Z,92338.31
2022-12-31T00:36:35.067Z,92347.97
2022-12-31T00:39:02.366Z,92357.19
2022-12-31T00:41:28.820Z,92359.81
2022-12-31T00:43:55.243Z,92364.53
2022-12-31T00:46:21.888Z,92356.19
2022-12-31T00:48:48.380Z,92320.66
2022-12-31T00:51:15.998Z,92250.72
2022-12-31T00:53:42.783Z,92183.72
2022-12-31T00:56:20.700Z,92101.28
2022-12-31T00:58:47.340Z,92043.72
2022-12-31T01:01:24.575Z,91988.28
2022-12-31T01:03:53.272Z,91991.41
2022-12-31T01:06:19.831Z,91991.97
2022-12-31T01:08:47.829Z,92010.31
2022-12-31T01:11:22.005Z,92067.41
2022-12-31T01:13:53.193Z,92101.22
2022-12-31T01:16:27.575Z,92154.38
2022-12-31T01:18:54.112Z,92233.47
2022-12-31T01:21:20.958Z,92261.22
2022-12-31T01:23:47.760Z,92299.47
2022-12-31T01:26:14.736Z,92325.66
2022-12-31T01:28:41.149Z,92330.88
2022-12-31T01:31:13.113Z,92343.44
2022-12-31T01:33:39.520Z,92339.78
2022-12-31T01:36:07.996Z,92331.38
2022-12-31T01:38:34.781Z,92318.13
2022-12-31T01:41:01.192Z,92340.41
2022-12-31T01:43:46.360Z,92372.88
2022-12-31T01:46:14.210Z,92379.19
2022-12-31T01:48:40.569Z,92404.91
2022-12-31T01:51:06.967Z,92364.06
2022-12-31T01:53:33.308Z,92280.75
2022-12-31T01:56:00.067Z,92162.88
2022-12-31T01:58:28.963Z,92050.75
2022-12-31T02:00:55.498Z,91959.59
2022-12-31T02:03:21.916Z,91845.91
2022-12-31T02:06:08.862Z,91724.09
2022-12-31T02:08:41.618Z,91644.50
2022-12-31T02:11:31.600Z,91541.06
2022-12-31T02:14:00.378Z,91444.13
2022-12-31T02:16:56.414Z,91385.47
2022-12-31T02:19:25.819Z,91316.06
2022-12-31T02:22:18.136Z,91256.06
2022-12-31T02:24:58.286Z,91222.25
2022-12-31T02:27:46.464Z,91203.13
2022-12-31T02:30:20.694Z,91197.81
2022-12-31T02:33:10.002Z,91195.13
2022-12-31T02:36:01.658Z,91227.06
2022-12-31T02:38:33.925Z,91299.34
2022-12-31T02:41:00.370Z,91345.94
2022-12-31T02:43:26.744Z,91440.47
2022-12-31T02:46:15.462Z,91526.69
2022-12-31T02:48:47.803Z,91613.19
2022-12-31T02:51:39.150Z,91687.09
2022-12-31T02:54:48.530Z,91751.00
2022-12-31T02:57:30.831Z,91814.94
2022-12-31T03:00:27.099Z,91904.59
2022-12-31T03:02:53.887Z,92089.19
2022-12-31T03:05:22.871Z,92256.00
2022-12-31T03:07:49.231Z,92387.94
2022-12-31T03:10:15.886Z,92449.09
2022-12-31T03:12:46.615Z,92527.78
2022-12-31T03:15:21.850Z,92568.16
2022-12-31T03:18:01.724Z,92593.41
2022-12-31T03:20:51.263Z,92625.22
2022-12-31T03:23:38.246Z,92699.00
2022-12-31T03:26:11.139Z,92746.78
2022-12-31T03:28:41.830Z,92779.97
2022-12-31T03:31:08.522Z,92850.41
2022-12-31T03:33:37.512Z,92816.81
2022-12-31T03:36:05.302Z,92640.91
2022-12-31T03:38:31.665Z,92433.03
2022-12-31T03:40:58.040Z,92212.00
2022-12-31T03:43:24.605Z,91970.13
2022-12-31T03:45:51.732Z,91703.59
2022-12-31T03:48:18.746Z,91393.88
2022-12-31T03:50:45.111Z,91111.00
2022-12-31T03:53:11.499Z,90869.09
2022-12-31T03:55:37.980Z,90649.75
2022-12-31T03:58:04.441Z,90239.00
2022-12-31T04:00:30.887Z,89548.66
2022-12-31T04:02:57.421Z,88823.88
2022-12-31T04:05:23.832Z,88390.78
2022-12-31T04:07:52.302Z,87938.84
2022-12-31T04:10:19.273Z,87415.06
2022-12-31T04:12:45.746Z,87030.53
2022-12-31T04:15:16.750Z,86599.56
2022-12-31T04:17:43.189Z,86301.78
2022-12-31T04:20:10.196Z,86039.63
2022-12-31T04:22:36.558Z,85794.19
2022-12-31T04:25:03.707Z,85650.19
2022-12-31T04:27:30.082Z,85540.00
2022-12-31T04:29:56.640Z,85451.63
2022-12-31T04:32:22.993Z,85369.28
2022-12-31T04:34:49.371Z,85301.22
2022-12-31T04:37:15.745Z,85251.66
2022-12-31T04:39:42.101Z,85193.78
2022-12-31T04:42:08.457Z,85255.66
2022-12-31T04:44:35.109Z,85259.16
2022-12-31T04:47:01.552Z,85301.06
2022-12-31T04:49:27.907Z,85331.09
2022-12-31T04:51:54.462Z,85416.66
2022-12-31T04:54:20.906Z,85526.72
2022-12-31T04:56:47.269Z,85620.81
2022-12-31T04:59:13.631Z,85759.47
2022-12-31T05:01:40.653Z,85920.09
2022-12-31T05:04:07.100Z,86175.69
2022-12-31T05:06:33.546Z,86504.91
2022-12-31T05:09:00.011Z,86823.63
2022-12-31T05:11:26.606Z,87178.78
2022-12-31T05:13:52.971Z,87549.78
2022-12-31T05:16:19.404Z,87935.09
2022-12-31T05:18:45.818Z,88281.91
2022-12-31T05:21:16.919Z,88673.69
2022-12-31T05:23:43.244Z,89018.63
2022-12-31T05:26:09.625Z,89254.78
2022-12-31T05:28:36.182Z,89549.81
2022-12-31T05:31:02.564Z,89821.72
2022-12-31T05:33:29.015Z,89997.34
2022-12-31T05:35:57.824Z,90236.00
2022-12-31T05:38:25.240Z,90431.31
2022-12-31T05:41:02.176Z,90564.34
2022-12-31T05:43:28.834Z,90675.94
2022-12-31T05:45:55.263Z,90783.66
2022-12-31T05:48:21.840Z,90939.41
2022-12-31T05:50:49.421Z,91150.50
2022-12-31T05:53:15.796Z,91367.03
2022-12-31T05:55:42.146Z,91472.75
2022-12-31T05:58:08.478Z,91459.13
2022-12-31T06:00:34.845Z,91300.03
2022-12-31T06:03:01.272Z,90969.34
2022-12-31T06:05:27.926Z,90544.50
2022-12-31T06:07:54.272Z,90169.06
2022-12-31T06:10:20.636Z,89823.66
2022-12-31T06:12:47.005Z,89480.81
2022-12-31T06:15:13.378Z,89188.63
2022-12-31T06:17:39.718Z,88867.41
2022-12-31T06:20:12.496Z,88450.00
2022-12-31T06:22:39.621Z,88092.72
2022-12-31T06:25:06.563Z,87853.78
2022-12-31T06:27:32.911Z,87626.53
2022-12-31T06:29:59.474Z,87448.34
2022-12-31T06:32:25.854Z,87261.66
2022-12-31T06:34:52.469Z,87098.50
2022-12-31T06:37:18.810Z,86908.50
2022-12-31T06:39:45.179Z,86874.50
2022-12-31T06:42:11.605Z,86762.00
2022-12-31T06:44:37.947Z,86661.09
2022-12-31T06:47:04.531Z,86552.38
2022-12-31T06:49:30.889Z,86489.25
2022-12-31T06:51:57.273Z,86402.88
2022-12-31T06:54:23.644Z,86353.94
2022-12-31T06:56:50.492Z,86298.31
2022-12-31T06:59:27.879Z,86238.94
2022-12-31T07:02:03.741Z,86197.88
2022-12-31T07:05:12.103Z,86144.09
2022-12-31T07:08:00.388Z,86076.81
2022-12-31T07:10:39.078Z,86018.53
2022-12-31T07:13:27.139Z,85979.72
2022-12-31T07:16:11.798Z,85924.78
2022-12-31T07:19:04.755Z,85883.34
2022-12-31T07:21:35.822Z,85848.34
2022-12-31T07:24:02.693Z,85796.75
2022-12-31T07:26:41.344Z,85764.72
2022-12-31T07:29:26.016Z,85680.41
2022-12-31T07:31:59.021Z,85635.63
2022-12-31T07:34:36.815Z,85601.75
2022-12-31T07:37:04.366Z,85567.75
2022-12-31T07:39:42.137Z,85534.16
2022-12-31T07:42:15.612Z,85493.16
2022-12-31T07:44:48.243Z,85452.16
2022-12-31T07:47:25.504Z,85420.19
2022-12-31T07:49:52.466Z,85368.19
2022-12-31T07:52:19.401Z,85326.06
2022-12-31T07:54:45.898Z,85264.47
2022-12-31T07:57:12.575Z,85231.22
2022-12-31T07:59:54.552Z,85202.03
2022-12-31T08:02:54.063Z,85148.88
2022-12-31T08:05:31.797Z,85071.66
2022-12-31T08:08:16.874Z,85022.63
2022-12-31T08:10:46.535Z,84908.47
2022-12-31T08:13:13.156Z,84895.84
2022-12-31T08:15:39.991Z,84925.59
2022-12-31T08:18:07.264Z,84954.63
2022-12-31T08:20:34.493Z,84973.78
2022-12-31T08:23:24.970Z,84930.91
2022-12-31T08:26:15.922Z,84904.34
2022-12-31T08:29:10.246Z,84881.72
2022-12-31T08:31:55.608Z,84806.75
2022-12-31T08:34:36.689Z,84769.41
2022-12-31T08:37:08.386Z,84783.38
2022-12-31T08:39:37.757Z,84802.38
2022-12-31T08:42:05.392Z,84817.81
2022-12-31T08:44:37.876Z,84810.66
2022-12-31T08:47:18.571Z,84843.94
2022-12-31T08:49:45.168Z,85139.75
2022-12-31T08:52:23.669Z,85158.38
2022-12-31T08:54:50.328Z,85166.22
2022-12-31T08:57:38.900Z,85141.94
2022-12-31T09:00:16.436Z,85099.34
2022-12-31T09:02:58.072Z,85093.84
2022-12-31T09:05:45.828Z,85059.00
2022-12-31T09:08:55.705Z,85048.53
2022-12-31T09:11:29.971Z,85038.78
2022-12-31T09:14:13.322Z,85012.81
2022-12-31T09:17:02.002Z,85004.13
2022-12-31T09:19:28.427Z,84951.09
2022-12-31T09:21:55.121Z,84885.25
2022-12-31T09:24:21.730Z,84809.94
2022-12-31T09:27:03.089Z,84755.25
2022-12-31T09:29:43.607Z,84690.06
2022-12-31T09:32:34.931Z,84581.78
2022-12-31T09:35:07.844Z,84505.75
2022-12-31T09:37:36.777Z,84452.31
2022-12-31T09:40:23.258Z,84445.19
2022-12-31T09:43:15.397Z,84406.97
2022-12-31T09:46:05.127Z,84307.75
2022-12-31T09:48:48.760Z,84246.47
2022-12-31T09:51:25.644Z,84194.41
2022-12-31T09:54:01.109Z,84140.34
2022-12-31T09:56:37.111Z,84098.19
2022-12-31T09:59:33.792Z,84057.72
2022-12-31T10:02:24.057Z,84019.38
2022-12-31T10:05:25.903Z,84028.91
2022-12-31T10:08:01.242Z,83969.91
2022-12-31T10:10:34.829Z,83927.50
2022-12-31T10:13:13.549Z,83842.72
2022-12-31T10:15:54.451Z,83843.22
2022-12-31T10:18:32.984Z,83834.88
2022-12-31T10:20:59.509Z,83855.13
2022-12-31T10:23:34.892Z,83863.25
2022-12-31T10:26:10.550Z,83834.44
2022-12-31T10:29:09.974Z,83793.94
2022-12-31T10:31:40.699Z,83811.84
2022-12-31T10:34:44.986Z,83840.97
2022-12-31T10:37:19.169Z,83867.00
2022-12-31T10:40:06.735Z,83987.81
2022-12-31T10:42:48.200Z,84249.22
2022-12-31T10:45:47.108Z,84538.84
2022-12-31T10:48:32.125Z,84990.59
2022-12-31T10:51:20.780Z,85521.72
2022-12-31T10:54:05.587Z,86099.34
2022-12-31T10:57:07.336Z,86846.66
2022-12-31T10:59:50.281Z,87703.63
2022-12-31T11:02:32.068Z,88514.66
2022-12-31T11:05:20.119Z,89315.00
2022-12-31T11:08:01.416Z,89874.97
2022-12-31T11:11:05.247Z,90250.06
2022-12-31T11:13:53.237Z,90600.31
2022-12-31T11:17:08.765Z,90599.50
2022-12-31T11:19:57.766Z,91074.22
2022-12-31T11:22:33.198Z,91459.72
2022-12-31T11:25:11.848Z,91762.19
2022-12-31T11:27:47.656Z,92008.59
2022-12-31T11:30:28.127Z,92162.25
2022-12-31T11:33:21.534Z,92421.28
2022-12-31T11:36:00.119Z,92695.22
2022-12-31T11:38:37.644Z,92940.03
2022-12-31T11:41:18.789Z,93201.88
2022-12-31T11:43:55.967Z,93457.22
2022-12-31T11:46:43.824Z,93566.94
2022-12-31T11:49:17.138Z,93586.22
2022-12-31T11:51:50.624Z,93602.84
2022-12-31T11:54:31.888Z,93734.31
2022-12-31T11:57:19.652Z,93928.47
2022-12-31T11:59:46.531Z,94085.13
2022-12-31T12:02:12.871Z,94160.81
2022-12-31T12:04:39.238Z,94163.25
2022-12-31T12:07:13.437Z,94312.56
2022-12-31T12:09:39.993Z,94424.94
2022-12-31T12:12:06.521Z,94499.44
2022-12-31T12:14:35.581Z,94451.38
2022-12-31T12:17:05.526Z,94526.94
2022-12-31T12:19:33.138Z,94461.72
2022-12-31T12:21:59.605Z,94433.69
2022-12-31T12:24:27.456Z,94441.97
2022-12-31T12:26:53.825Z,94455.78
2022-12-31T12:29:22.298Z,94431.50
2022-12-31T12:32:22.220Z,94459.22
2022-12-31T12:34:50.183Z,94451.06
2022-12-31T12:37:34.305Z,94452.75
2022-12-31T12:40:14.386Z,94394.72
2022-12-31T12:42:51.302Z,94387.94
2022-12-31T12:45:23.031Z,94399.56
2022-12-31T12:47:53.739Z,94460.13
2022-12-31T12:50:32.908Z,94472.78
2022-12-31T12:53:21.853Z,94508.28
2022-12-31T12:56:04.556Z,94456.22
2022-12-31T12:58:36.960Z,94440.38
2022-12-31T13:01:09.551Z,94504.50
2022-12-31T13:03:48.675Z,94649.09
2022-12-31T13:06:55.319Z,94697.59
2022-12-31T13:09:44.327Z,94687.81
2022-12-31T13:12:19.653Z,94749.56
2022-12-31T13:15:09.082Z,94774.16
2022-12-31T13:17:53.319Z,94874.78
2022-12-31T13:20:56.608Z,94924.81
2022-12-31T13:23:39.872Z,94977.22
2022-12-31T13:26:10.694Z,95044.38
2022-12-31T13:28:39.127Z,95047.88
2022-12-31T13:31:08.809Z,95016.22
2022-12-31T13:33:44.062Z,94985.13
2022-12-31T13:36:15.143Z,94994.09
2022-12-31T13:38:52.449Z,95039.19
2022-12-31T13:41:21.737Z,95034.31
2022-12-31T13:44:10.213Z,94972.16
2022-12-31T13:46:42.730Z,94931.47
2022-12-31T13:49:27.369Z,95048.94
2022-12-31T13:52:05.726Z,94927.41
2022-12-31T13:54:52.353Z,94762.47
2022-12-31T13:57:37.870Z,94798.88
2022-12-31T14:00:07.138Z,94795.50
2022-12-31T14:03:07.760Z,94794.25
2022-12-31T14:05:38.950Z,94770.91
2022-12-31T14:08:05.623Z,94773.59
2022-12-31T14:10:39.550Z,94754.53
2022-12-31T14:13:47.961Z,94611.88
2022-12-31T14:16:27.378Z,94492.28
2022-12-31T14:19:01.153Z,94534.56
2022-12-31T14:21:56.722Z,94536.41
2022-12-31T14:24:43.813Z,94575.00
2022-12-31T14:27:14.958Z,94558.78
2022-12-31T14:29:44.994Z,94562.09
2022-12-31T14:32:24.944Z,94515.09
2022-12-31T14:35:16.038Z,94460.31
2022-12-31T14:38:08.842Z,94458.38
2022-12-31T14:40:57.091Z,94520.47
2022-12-31T14:43:49.910Z,94553.75
2022-12-31T14:46:44.273Z,94540.78
2022-12-31T14:49:32.438Z,94522.59
2022-12-31T14:52:16.749Z,94574.81
2022-12-31T14:54:43.118Z,94676.75
2022-12-31T14:57:23.711Z,94748.88
2022-12-31T14:59:55.503Z,94745.00
2022-12-31T15:02:34.819Z,94825.41
2022-12-31T15:05:10.264Z,94884.66
2022-12-31T15:08:05.893Z,94971.34
2022-12-31T15:10:48.621Z,94989.69
2022-12-31T15:13:19.663Z,94949.72
2022-12-31T15:16:10.876Z,95001.47
2022-12-31T15:19:00.165Z,95062.19
2022-12-31T15:21:41.747Z,95165.38
2022-12-31T15:24:21.680Z,95172.28
2022-12-31T15:26:55.996Z,95263.34
2022-12-31T15:29:28.015Z,95308.50
2022-12-31T15:31:54.357Z,95301.59
2022-12-31T15:34:26.463Z,95349.19
2022-12-31T15:36:55.163Z,95367.88
2022-12-31T15:39:40.630Z,95425.38
2022-12-31T15:42:37.872Z,95474.00
2022-12-31T15:45:07.448Z,95574.69
2022-12-31T15:47:37.627Z,95545.59
2022-12-31T15:50:12.123Z,95580.59
2022-12-31T15:53:00.957Z,95594.41
2022-12-31T15:55:42.922Z,95615.97
2022-12-31T15:58:15.742Z,95610.66
2022-12-31T16:00:51.253Z,95586.66
2022-12-31T16:03:27.353Z,95597.66
2022-12-31T16:06:00.057Z,95646.47
2022-12-31T16:08:29.269Z,95684.31
2022-12-31T16:10:55.611Z,95806.00
2022-12-31T16:13:22.862Z,95886.22
2022-12-31T16:15:51.281Z,95952.06
2022-12-31T16:18:22.758Z,96006.22
2022-12-31T16:20:51.655Z,96032.06
2022-12-31T16:23:22.975Z,96073.31
2022-12-31T16:25:49.903Z,96092.03
2022-12-31T16:28:20.570Z,96068.75
2022-12-31T16:30:47.507Z,96110.41
2022-12-31T16:33:14.424Z,96190.13
2022-12-31T16:35:41.067Z,96205.13
2022-12-31T16:38:14.449Z,96223.81
2022-12-31T16:41:03.564Z,96198.41
2022-12-31T16:43:37.843Z,96175.56
2022-12-31T16:46:18.077Z,96212.56
2022-12-31T16:48:48.904Z,96182.13
2022-12-31T16:51:20.378Z,96184.69
2022-12-31T16:53:47.145Z,96165.25
2022-12-31T16:56:25.850Z,96165.81
2022-12-31T16:58:55.963Z,96175.13
2022-12-31T17:01:25.809Z,96196.28
2022-12-31T17:03:53.744Z,96229.88
2022-12-31T17:06:21.214Z,96264.25
2022-12-31T17:08:55.424Z,96315.13
2022-12-31T17:11:30.683Z,96310.56
2022-12-31T17:14:06.606Z,96252.38
2022-12-31T17:17:02.647Z,96212.47
2022-12-31T17:19:36.300Z,96233.06
2022-12-31T17:22:03.793Z,96264.41
2022-12-31T17:24:30.203Z,96264.41
2022-12-31T17:27:03.021Z,96253.38
2022-12-31T17:29:29.389Z,96247.66
2022-12-31T17:31:59.725Z,96230.16
2022-12-31T17:34:47.482Z,96230.16
2022-12-31T17:37:29.866Z,96163.28
2022-12-31T17:40:24.499Z,96103.63
2022-12-31T17:42:47.582Z,96030.22
2022-12-31T17:45:20.974Z,95980.88
2022-12-31T17:47:48.906Z,95945.28
2022-12-31T17:50:15.322Z,95900.50
2022-12-31T17:52:41.691Z,95852.72
2022-12-31T17:55:08.051Z,95795.75
2022-12-31T17:57:36.074Z,95738.19
2022-12-31T18:00:08.600Z,95665.00
2022-12-31T18:02:35.000Z,95619.13
2022-12-31T18:05:01.419Z,95567.16
2022-12-31T18:07:27.799Z,95548.69
2022-12-31T18:09:54.201Z,95556.25
2022-12-31T18:12:20.547Z,95573.69
2022-12-31T18:14:46.946Z,95561.50
2022-12-31T18:17:16.478Z,95558.25
2022-12-31T18:20:04.349Z,95578.09
2022-12-31T18:22:29.403Z,95553.75
2022-12-31T18:24:55.764Z,95575.25
2022-12-31T18:27:22.160Z,95555.34
2022-12-31T18:29:48.577Z,95593.09
2022-12-31T18:32:19.851Z,95594.72
2022-12-31T18:34:46.386Z,95614.41
2022-12-31T18:37:17.937Z,95652.00
2022-12-31T18:39:47.773Z,95664.59
2022-12-31T18:42:14.488Z,95688.19
2022-12-31T18:44:41.552Z,95724.69
2022-12-31T18:47:15.543Z,95690.47
2022-12-31T18:49:41.969Z,95675.84
2022-12-31T18:52:18.312Z,95679.69
2022-12-31T18:54:44.727Z,95657.06
2022-12-31T18:57:11.687Z,95672.50
2022-12-31T18:59:38.382Z,95686.72
2022-12-31T19:02:04.931Z,95684.00
2022-12-31T19:04:31.276Z,95664.88
2022-12-31T19:06:57.811Z,95656.31
2022-12-31T19:09:44.709Z,95673.59
2022-12-31T19:12:14.434Z,95693.50
2022-12-31T19:14:40.857Z,95725.78
2022-12-31T19:19:32.803Z,95743.41
2022-12-31T19:21:59.147Z,95748.19
2022-12-31T19:24:26.575Z,95776.44
2022-12-31T19:26:53.543Z,95809.19
2022-12-31T19:29:22.358Z,95857.28
2022-12-31T19:31:49.062Z,95908.84
2022-12-31T19:34:15.620Z,95903.78
2022-12-31T19:36:44.278Z,95914.69
2022-12-31T19:39:14.619Z,95892.69
2022-12-31T19:41:44.368Z,95895.13
2022-12-31T19:44:15.515Z,95971.63
2022-12-31T19:46:41.951Z,96012.56
2022-12-31T19:49:13.964Z,96027.50
2022-12-31T19:51:40.694Z,96062.06
2022-12-31T19:54:07.601Z,96053.13
2022-12-31T19:56:33.979Z,96065.88
2022-12-31T19:59:07.535Z,96075.94
2022-12-31T20:01:34.152Z,96081.78
2022-12-31T20:04:00.711Z,96077.31
2022-12-31T20:06:27.172Z,96089.03
2022-12-31T20:08:53.571Z,96119.22
2022-12-31T20:11:21.038Z,96151.16
2022-12-31T20:13:47.916Z,96202.94
2022-12-31T20:16:18.590Z,96222.22
2022-12-31T20:18:45.854Z,96207.56
2022-12-31T20:21:14.399Z,96225.38
2022-12-31T20:23:40.840Z,96246.50
2022-12-31T20:26:07.191Z,96260.47
2022-12-31T20:28:33.589Z,96264.78
2022-12-31T20:31:05.199Z,96284.59
2022-12-31T20:33:31.587Z,96294.31
2022-12-31T20:36:01.693Z,96299.59
2022-12-31T20:38:28.053Z,96298.16
2022-12-31T20:40:54.394Z,96304.72
2022-12-31T20:43:20.860Z,96341.47
2022-12-31T20:45:47.776Z,96358.47
2022-12-31T20:48:14.153Z,96387.00
2022-12-31T20:50:40.566Z,96380.44
2022-12-31T20:53:06.968Z,96449.47
2022-12-31T20:55:33.342Z,96464.97
2022-12-31T20:58:00.549Z,96484.28
2022-12-31T21:00:26.940Z,96509.97
2022-12-31T21:03:00.622Z,96536.50
2022-12-31T21:05:30.572Z,96555.78
2022-12-31T21:07:57.055Z,96561.38
2022-12-31T21:10:23.397Z,96652.38
2022-12-31T21:12:53.322Z,96686.63
2022-12-31T21:15:20.233Z,96691.94
2022-12-31T21:17:46.590Z,96718.31
2022-12-31T21:20:12.980Z,96729.50
2022-12-31T21:22:39.352Z,96716.81
2022-12-31T21:25:06.320Z,96747.00
2022-12-31T21:27:32.701Z,96758.19
2022-12-31T21:30:18.206Z,96784.22
2022-12-31T21:32:45.307Z,96829.72
2022-12-31T21:35:41.617Z,96847.53
2022-12-31T21:38:05.538Z,96863.66
2022-12-31T21:40:32.001Z,96878.69
2022-12-31T21:42:58.435Z,96881.47
2022-12-31T21:45:25.033Z,96914.47
2022-12-31T21:48:10.172Z,96921.88
2022-12-31T21:50:36.605Z,96957.66
2022-12-31T21:53:02.971Z,96962.09
2022-12-31T21:55:48.034Z,96960.09
2022-12-31T21:58:25.816Z,96954.28
2022-12-31T22:01:11.713Z,96987.25
2022-12-31T22:03:38.252Z,96988.91
2022-12-31T22:06:10.210Z,97014.97
2022-12-31T22:08:36.635Z,97047.28
2022-12-31T22:11:03.026Z,97067.72
2022-12-31T22:13:29.420Z,97083.69
2022-12-31T22:16:03.899Z,97080.41
2022-12-31T22:18:33.730Z,97098.72
2022-12-31T22:21:20.718Z,97124.41
2022-12-31T22:23:52.018Z,97136.59
2022-12-31T22:26:20.538Z,97128.31
2022-12-31T22:28:47.068Z,97134.94
2022-12-31T22:31:15.084Z,97136.09
2022-12-31T22:33:42.100Z,97157.88
2022-12-31T22:36:11.201Z,97176.47
2022-12-31T22:38:37.549Z,97199.22
2022-12-31T22:41:14.750Z,97198.25
2022-12-31T22:43:42.656Z,97213.53
2022-12-31T22:46:13.640Z,97215.50
2022-12-31T22:48:40.122Z,97233.00
2022-12-31T22:51:06.743Z,97228.16
2022-12-31T22:53:33.100Z,97231.06
2022-12-31T22:55:59.635Z,97219.19
2022-12-31T22:58:26.078Z,97269.34
2022-12-31T23:00:52.519Z,97283.25
2022-12-31T23:03:19.076Z,97269.97
2022-12-31T23:05:47.072Z,97288.41
2022-12-31T23:08:22.291Z,97292.03
2022-12-31T23:10:59.529Z,97311.88
2022-12-31T23:13:50.984Z,97338.91
2022-12-31T23:16:36.940Z,97354.59
2022-12-31T23:19:22.105Z,97374.16
2022-12-31T23:22:06.865Z,97356.31
2022-12-31T23:24:33.280Z,97360.19
2022-12-31T23:26:59.616Z,97367.72
2022-12-31T23:29:26.072Z,97374.13
2022-12-31T23:31:52.643Z,97377.16
2022-12-31T23:34:19.239Z,97408.53
2022-12-31T23:36:45.628Z,97412.41
2022-12-31T23:39:13.360Z,97401.88
2022-12-31T23:41:39.812Z,97431.94
2022-12-31T23:44:06.223Z,97436.81
2022-12-31T23:46:32.647Z,97447.66
2022-12-31T23:48:59.109Z,97451.25
2022-12-31T23:51:25.508Z,97466.13
2022-12-31T23:53:51.873Z,97492.47
2022-12-31T23:56:23.311Z,97491.22
2022-12-31T23:58:54.134Z,97525.91
